sensor_id;sensor_type;location;lat;lon;timestamp;pressure;altitude;pressure_sealevel;temperature;humidity
76229;BME280;65021;53.174;18.160;2023-04-01T00:00:52;99139.51;;;9.18;81.39
76229;BME280;65021;53.174;18.160;2023-04-01T00:03:20;99138.89;;;9.16;81.43
76229;BME280;65021;53.174;18.160;2023-04-01T00:05:46;99139.50;;;9.14;81.64
76229;BME280;65021;53.174;18.160;2023-04-01T00:08:12;99139.23;;;9.12;81.64
76229;BME280;65021;53.174;18.160;2023-04-01T00:10:38;99133.62;;;9.10;81.49
76229;BME280;65021;53.174;18.160;2023-04-01T00:13:04;99132.46;;;9.09;81.67
76229;BME280;65021;53.174;18.160;2023-04-01T00:15:31;99133.13;;;9.08;81.52
76229;BME280;65021;53.174;18.160;2023-04-01T00:17:56;99135.00;;;9.07;81.64
76229;BME280;65021;53.174;18.160;2023-04-01T00:20:22;99134.11;;;9.05;81.65
76229;BME280;65021;53.174;18.160;2023-04-01T00:22:48;99130.79;;;9.03;81.90
76229;BME280;65021;53.174;18.160;2023-04-01T00:25:14;99129.80;;;9.00;81.82
76229;BME280;65021;53.174;18.160;2023-04-01T00:27:41;99127.68;;;8.98;82.13
76229;BME280;65021;53.174;18.160;2023-04-01T00:30:07;99129.12;;;8.97;82.10
76229;BME280;65021;53.174;18.160;2023-04-01T00:32:34;99125.74;;;8.94;81.67
76229;BME280;65021;53.174;18.160;2023-04-01T00:35:00;99126.01;;;8.92;81.79
76229;BME280;65021;53.174;18.160;2023-04-01T00:37:27;99126.64;;;8.91;81.63
76229;BME280;65021;53.174;18.160;2023-04-01T00:39:53;99129.84;;;8.91;81.88
76229;BME280;65021;53.174;18.160;2023-04-01T00:42:19;99130.34;;;8.88;81.96
76229;BME280;65021;53.174;18.160;2023-04-01T00:44:49;99126.56;;;8.86;82.24
76229;BME280;65021;53.174;18.160;2023-04-01T00:47:16;99123.51;;;8.85;82.42
76229;BME280;65021;53.174;18.160;2023-04-01T00:49:45;99127.16;;;8.82;83.08
76229;BME280;65021;53.174;18.160;2023-04-01T00:52:15;99124.88;;;8.80;82.85
76229;BME280;65021;53.174;18.160;2023-04-01T00:54:46;99126.88;;;8.78;83.30
76229;BME280;65021;53.174;18.160;2023-04-01T00:57:17;99126.16;;;8.76;82.94
76229;BME280;65021;53.174;18.160;2023-04-01T00:59:46;99124.98;;;8.74;82.90
76229;BME280;65021;53.174;18.160;2023-04-01T01:02:14;99125.16;;;8.72;82.94
76229;BME280;65021;53.174;18.160;2023-04-01T01:04:43;99126.54;;;8.69;83.03
76229;BME280;65021;53.174;18.160;2023-04-01T01:07:33;99124.83;;;8.69;82.87
76229;BME280;65021;53.174;18.160;2023-04-01T01:12:45;99119.78;;;8.67;83.02
76229;BME280;65021;53.174;18.160;2023-04-01T01:31:53;99124.64;;;8.65;83.93
76229;BME280;65021;53.174;18.160;2023-04-01T01:34:29;99124.80;;;8.63;83.39
76229;BME280;65021;53.174;18.160;2023-04-01T01:37:10;99121.64;;;8.61;83.55
76229;BME280;65021;53.174;18.160;2023-04-01T01:39:40;99122.35;;;8.59;83.59
76229;BME280;65021;53.174;18.160;2023-04-01T01:42:11;99123.13;;;8.58;84.06
76229;BME280;65021;53.174;18.160;2023-04-01T01:44:40;99124.73;;;8.56;83.69
76229;BME280;65021;53.174;18.160;2023-04-01T01:47:08;99122.69;;;8.53;83.50
76229;BME280;65021;53.174;18.160;2023-04-01T01:49:35;99124.50;;;8.54;83.82
76229;BME280;65021;53.174;18.160;2023-04-01T01:52:02;99118.91;;;8.52;83.85
76229;BME280;65021;53.174;18.160;2023-04-01T01:54:29;99122.77;;;8.49;84.19
76229;BME280;65021;53.174;18.160;2023-04-01T01:57:06;99119.23;;;8.48;83.79
76229;BME280;65021;53.174;18.160;2023-04-01T01:59:35;99118.95;;;8.46;83.58
76229;BME280;65021;53.174;18.160;2023-04-01T02:02:03;99118.95;;;8.45;83.78
76229;BME280;65021;53.174;18.160;2023-04-01T02:04:41;99120.93;;;8.44;83.88
76229;BME280;65021;53.174;18.160;2023-04-01T02:07:14;99119.65;;;8.43;84.10
76229;BME280;65021;53.174;18.160;2023-04-01T02:09:41;99120.48;;;8.40;84.02
76229;BME280;65021;53.174;18.160;2023-04-01T02:12:11;99124.46;;;8.39;84.49
76229;BME280;65021;53.174;18.160;2023-04-01T02:14:52;99124.50;;;8.34;84.47
76229;BME280;65021;53.174;18.160;2023-04-01T02:17:22;99121.45;;;8.32;84.46
76229;BME280;65021;53.174;18.160;2023-04-01T02:20:08;99124.77;;;8.31;84.87
76229;BME280;65021;53.174;18.160;2023-04-01T02:22:38;99123.75;;;8.28;84.51
76229;BME280;65021;53.174;18.160;2023-04-01T02:25:10;99126.25;;;8.27;84.45
76229;BME280;65021;53.174;18.160;2023-04-01T02:27:38;99125.17;;;8.25;84.35
76229;BME280;65021;53.174;18.160;2023-04-01T02:30:05;99127.88;;;8.25;84.49
76229;BME280;65021;53.174;18.160;2023-04-01T02:32:33;99127.75;;;8.24;84.36
76229;BME280;65021;53.174;18.160;2023-04-01T02:34:59;99125.87;;;8.22;84.56
76229;BME280;65021;53.174;18.160;2023-04-01T02:37:28;99127.30;;;8.20;84.87
76229;BME280;65021;53.174;18.160;2023-04-01T02:39:59;99128.45;;;8.18;84.93
76229;BME280;65021;53.174;18.160;2023-04-01T02:42:26;99134.58;;;8.16;85.19
76229;BME280;65021;53.174;18.160;2023-04-01T02:44:51;99134.97;;;8.15;85.07
76229;BME280;65021;53.174;18.160;2023-04-01T02:47:17;99138.84;;;8.15;85.17
76229;BME280;65021;53.174;18.160;2023-04-01T02:49:43;99137.46;;;8.12;84.99
76229;BME280;65021;53.174;18.160;2023-04-01T02:52:09;99142.27;;;8.12;84.88
76229;BME280;65021;53.174;18.160;2023-04-01T02:54:35;99142.42;;;8.12;84.64
76229;BME280;65021;53.174;18.160;2023-04-01T02:57:02;99143.60;;;8.12;84.73
76229;BME280;65021;53.174;18.160;2023-04-01T02:59:27;99149.13;;;8.12;84.69
76229;BME280;65021;53.174;18.160;2023-04-01T03:01:53;99147.08;;;8.12;85.31
76229;BME280;65021;53.174;18.160;2023-04-01T03:04:19;99150.61;;;8.10;85.31
76229;BME280;65021;53.174;18.160;2023-04-01T03:06:45;99151.95;;;8.11;85.20
76229;BME280;65021;53.174;18.160;2023-04-01T03:09:11;99155.64;;;8.09;85.38
76229;BME280;65021;53.174;18.160;2023-04-01T03:11:37;99156.70;;;8.08;85.39
76229;BME280;65021;53.174;18.160;2023-04-01T03:14:03;99158.13;;;8.06;85.35
76229;BME280;65021;53.174;18.160;2023-04-01T03:16:29;99166.35;;;8.05;85.26
76229;BME280;65021;53.174;18.160;2023-04-01T03:18:54;99165.34;;;8.02;85.52
76229;BME280;65021;53.174;18.160;2023-04-01T03:21:24;99168.69;;;7.98;85.67
76229;BME280;65021;53.174;18.160;2023-04-01T03:23:50;99165.58;;;7.94;85.37
76229;BME280;65021;53.174;18.160;2023-04-01T03:26:17;99167.51;;;7.92;85.32
76229;BME280;65021;53.174;18.160;2023-04-01T03:28:43;99169.88;;;7.90;85.70
76229;BME280;65021;53.174;18.160;2023-04-01T03:31:09;99173.23;;;7.86;85.72
76229;BME280;65021;53.174;18.160;2023-04-01T03:33:35;99170.81;;;7.81;86.02
76229;BME280;65021;53.174;18.160;2023-04-01T03:36:02;99179.19;;;7.76;86.17
76229;BME280;65021;53.174;18.160;2023-04-01T03:38:35;99180.52;;;7.68;86.46
76229;BME280;65021;53.174;18.160;2023-04-01T03:41:02;99175.93;;;7.61;86.55
76229;BME280;65021;53.174;18.160;2023-04-01T03:43:27;99181.59;;;7.56;86.38
76229;BME280;65021;53.174;18.160;2023-04-01T03:45:53;99185.49;;;7.53;86.03
76229;BME280;65021;53.174;18.160;2023-04-01T03:48:20;99183.58;;;7.49;86.23
76229;BME280;65021;53.174;18.160;2023-04-01T03:50:46;99186.23;;;7.46;86.29
76229;BME280;65021;53.174;18.160;2023-04-01T03:53:13;99186.09;;;7.44;86.26
76229;BME280;65021;53.174;18.160;2023-04-01T03:55:39;99186.77;;;7.39;86.75
76229;BME280;65021;53.174;18.160;2023-04-01T03:58:06;99191.48;;;7.35;86.29
76229;BME280;65021;53.174;18.160;2023-04-01T04:00:33;99191.75;;;7.33;86.04
76229;BME280;65021;53.174;18.160;2023-04-01T04:02:59;99191.99;;;7.29;86.15
76229;BME280;65021;53.174;18.160;2023-04-01T04:05:26;99194.29;;;7.27;86.08
76229;BME280;65021;53.174;18.160;2023-04-01T04:07:52;99195.20;;;7.23;86.51
76229;BME280;65021;53.174;18.160;2023-04-01T04:10:19;99202.15;;;7.21;86.56
76229;BME280;65021;53.174;18.160;2023-04-01T04:12:45;99207.69;;;7.17;86.54
76229;BME280;65021;53.174;18.160;2023-04-01T04:15:11;99212.73;;;7.12;86.51
76229;BME280;65021;53.174;18.160;2023-04-01T04:17:37;99218.43;;;7.08;86.57
76229;BME280;65021;53.174;18.160;2023-04-01T04:20:04;99222.45;;;7.02;86.99
76229;BME280;65021;53.174;18.160;2023-04-01T04:22:30;99223.49;;;6.96;87.07
76229;BME280;65021;53.174;18.160;2023-04-01T04:24:56;99226.10;;;6.91;86.86
76229;BME280;65021;53.174;18.160;2023-04-01T04:27:22;99225.59;;;6.85;87.16
76229;BME280;65021;53.174;18.160;2023-04-01T04:29:47;99223.89;;;6.81;87.04
76229;BME280;65021;53.174;18.160;2023-04-01T04:32:14;99225.77;;;6.77;86.96
76229;BME280;65021;53.174;18.160;2023-04-01T04:34:39;99228.35;;;6.76;87.10
76229;BME280;65021;53.174;18.160;2023-04-01T04:37:05;99232.52;;;6.72;87.57
76229;BME280;65021;53.174;18.160;2023-04-01T04:39:31;99235.22;;;6.67;87.51
76229;BME280;65021;53.174;18.160;2023-04-01T04:41:57;99237.25;;;6.62;87.54
76229;BME280;65021;53.174;18.160;2023-04-01T04:44:23;99241.34;;;6.57;87.37
76229;BME280;65021;53.174;18.160;2023-04-01T04:46:49;99240.59;;;6.54;87.10
76229;BME280;65021;53.174;18.160;2023-04-01T04:49:15;99244.98;;;6.52;87.34
76229;BME280;65021;53.174;18.160;2023-04-01T04:51:41;99250.02;;;6.49;87.31
76229;BME280;65021;53.174;18.160;2023-04-01T04:54:08;99251.93;;;6.48;87.30
76229;BME280;65021;53.174;18.160;2023-04-01T04:56:34;99257.55;;;6.46;87.59
76229;BME280;65021;53.174;18.160;2023-04-01T04:59:01;99258.63;;;6.44;87.47
76229;BME280;65021;53.174;18.160;2023-04-01T05:01:27;99259.43;;;6.43;87.68
76229;BME280;65021;53.174;18.160;2023-04-01T05:03:53;99261.30;;;6.38;87.59
76229;BME280;65021;53.174;18.160;2023-04-01T05:06:19;99263.15;;;6.36;87.37
76229;BME280;65021;53.174;18.160;2023-04-01T05:08:46;99268.56;;;6.32;87.75
76229;BME280;65021;53.174;18.160;2023-04-01T05:11:14;99267.72;;;6.27;87.82
76229;BME280;65021;53.174;18.160;2023-04-01T05:13:41;99274.17;;;6.23;87.56
76229;BME280;65021;53.174;18.160;2023-04-01T05:16:09;99279.39;;;6.22;87.84
76229;BME280;65021;53.174;18.160;2023-04-01T05:18:35;99277.44;;;6.20;87.89
76229;BME280;65021;53.174;18.160;2023-04-01T05:21:01;99279.05;;;6.17;87.82
76229;BME280;65021;53.174;18.160;2023-04-01T05:23:27;99286.88;;;6.17;88.02
76229;BME280;65021;53.174;18.160;2023-04-01T05:25:53;99288.03;;;6.16;87.98
76229;BME280;65021;53.174;18.160;2023-04-01T05:28:19;99292.59;;;6.14;87.86
76229;BME280;65021;53.174;18.160;2023-04-01T05:30:45;99292.94;;;6.12;87.79
76229;BME280;65021;53.174;18.160;2023-04-01T05:33:12;99292.81;;;6.11;87.77
76229;BME280;65021;53.174;18.160;2023-04-01T05:35:39;99293.84;;;6.09;87.67
76229;BME280;65021;53.174;18.160;2023-04-01T05:38:05;99296.16;;;6.10;87.56
76229;BME280;65021;53.174;18.160;2023-04-01T05:40:32;99299.33;;;6.08;87.64
76229;BME280;65021;53.174;18.160;2023-04-01T05:42:58;99300.27;;;6.08;87.74
76229;BME280;65021;53.174;18.160;2023-04-01T05:45:24;99297.23;;;6.08;87.81
76229;BME280;65021;53.174;18.160;2023-04-01T05:47:50;99297.30;;;6.08;87.63
76229;BME280;65021;53.174;18.160;2023-04-01T05:50:16;99303.54;;;6.10;87.58
76229;BME280;65021;53.174;18.160;2023-04-01T05:52:43;99300.98;;;6.08;87.54
76229;BME280;65021;53.174;18.160;2023-04-01T05:55:10;99301.02;;;6.06;87.73
76229;BME280;65021;53.174;18.160;2023-04-01T05:57:36;99308.80;;;6.07;87.42
76229;BME280;65021;53.174;18.160;2023-04-01T06:00:03;99307.03;;;6.07;87.45
76229;BME280;65021;53.174;18.160;2023-04-01T06:02:29;99306.50;;;6.08;87.28
76229;BME280;65021;53.174;18.160;2023-04-01T06:05:11;99308.64;;;6.11;87.16
76229;BME280;65021;53.174;18.160;2023-04-01T06:07:38;99316.88;;;6.12;87.17
76229;BME280;65021;53.174;18.160;2023-04-01T06:10:12;99318.81;;;6.13;86.99
76229;BME280;65021;53.174;18.160;2023-04-01T06:12:50;99320.06;;;6.14;86.98
76229;BME280;65021;53.174;18.160;2023-04-01T06:36:52;99336.45;;;6.37;86.45
76229;BME280;65021;53.174;18.160;2023-04-01T06:42:24;99339.57;;;6.42;86.31
76229;BME280;65021;53.174;18.160;2023-04-01T06:53:33;99352.53;;;6.57;86.05
76229;BME280;65021;53.174;18.160;2023-04-01T06:56:08;99355.87;;;6.59;86.11
76229;BME280;65021;53.174;18.160;2023-04-01T06:59:19;99359.09;;;6.60;85.93
76229;BME280;65021;53.174;18.160;2023-04-01T07:01:49;99355.26;;;6.58;86.00
76229;BME280;65021;53.174;18.160;2023-04-01T07:04:40;99364.80;;;6.58;85.87
76229;BME280;65021;53.174;18.160;2023-04-01T07:07:45;99364.24;;;6.57;85.83
76229;BME280;65021;53.174;18.160;2023-04-01T07:10:17;99366.30;;;6.56;85.84
76229;BME280;65021;53.174;18.160;2023-04-01T07:12:47;99370.71;;;6.59;86.00
76229;BME280;65021;53.174;18.160;2023-04-01T07:18:32;99378.48;;;6.74;85.97
76229;BME280;65021;53.174;18.160;2023-04-01T07:20:58;99382.56;;;6.77;85.98
76229;BME280;65021;53.174;18.160;2023-04-01T07:23:36;99384.23;;;6.81;85.73
76229;BME280;65021;53.174;18.160;2023-04-01T07:26:15;99392.92;;;6.83;85.93
76229;BME280;65021;53.174;18.160;2023-04-01T07:28:42;99391.27;;;6.86;85.66
76229;BME280;65021;53.174;18.160;2023-04-01T07:33:46;99393.44;;;6.84;85.70
76229;BME280;65021;53.174;18.160;2023-04-01T07:36:45;99399.56;;;6.80;85.52
76229;BME280;65021;53.174;18.160;2023-04-01T07:42:09;99404.12;;;6.70;85.42
76229;BME280;65021;53.174;18.160;2023-04-01T07:44:53;99411.25;;;6.66;85.44
76229;BME280;65021;53.174;18.160;2023-04-01T07:53:03;99426.16;;;6.52;85.35
76229;BME280;65021;53.174;18.160;2023-04-01T07:55:50;99432.14;;;6.46;85.36
76229;BME280;65021;53.174;18.160;2023-04-01T07:58:24;99432.26;;;6.44;85.15
76229;BME280;65021;53.174;18.160;2023-04-01T08:00:59;99437.31;;;6.42;85.33
76229;BME280;65021;53.174;18.160;2023-04-01T08:03:59;99437.60;;;6.43;85.22
76229;BME280;65021;53.174;18.160;2023-04-01T08:09:29;99444.80;;;6.37;85.10
76229;BME280;65021;53.174;18.160;2023-04-01T08:17:14;99459.67;;;6.38;85.05
76229;BME280;65021;53.174;18.160;2023-04-01T08:19:56;99455.72;;;6.50;84.89
76229;BME280;65021;53.174;18.160;2023-04-01T08:22:43;99459.65;;;6.65;84.60
76229;BME280;65021;53.174;18.160;2023-04-01T08:25:17;99461.27;;;6.76;84.51
76229;BME280;65021;53.174;18.160;2023-04-01T08:30:45;99464.31;;;6.96;84.19
76229;BME280;65021;53.174;18.160;2023-04-01T08:33:24;99464.17;;;7.05;83.99
76229;BME280;65021;53.174;18.160;2023-04-01T08:36:20;99463.75;;;7.15;83.88
76229;BME280;65021;53.174;18.160;2023-04-01T08:38:57;99464.47;;;7.19;83.57
76229;BME280;65021;53.174;18.160;2023-04-01T09:04:40;99493.47;;;7.78;81.89
76229;BME280;65021;53.174;18.160;2023-04-01T09:12:49;99501.16;;;7.80;81.66
76229;BME280;65021;53.174;18.160;2023-04-01T09:40:58;99543.95;;;7.72;80.59
76229;BME280;65021;53.174;18.160;2023-04-01T09:43:49;99544.73;;;7.69;80.66
76229;BME280;65021;53.174;18.160;2023-04-01T09:52:10;99552.14;;;7.64;80.62
76229;BME280;65021;53.174;18.160;2023-04-01T10:06:38;99562.24;;;7.80;80.09
76229;BME280;65021;53.174;18.160;2023-04-01T10:28:26;99583.23;;;8.29;79.13
76229;BME280;65021;53.174;18.160;2023-04-01T10:42:11;99585.15;;;8.26;79.00
76229;BME280;65021;53.174;18.160;2023-04-01T10:51:04;99591.86;;;8.16;79.03
76229;BME280;65021;53.174;18.160;2023-04-01T10:54:01;99603.77;;;8.22;78.60
76229;BME280;65021;53.174;18.160;2023-04-01T10:56:40;99596.02;;;8.17;78.59
76229;BME280;65021;53.174;18.160;2023-04-01T10:59:15;99599.39;;;8.13;78.67
76229;BME280;65021;53.174;18.160;2023-04-01T11:29:53;99637.71;;;8.26;78.24
76229;BME280;65021;53.174;18.160;2023-04-01T11:37:46;99647.20;;;8.24;77.11
76229;BME280;65021;53.174;18.160;2023-04-01T11:40:27;99648.09;;;8.31;77.50
76229;BME280;65021;53.174;18.160;2023-04-01T11:46:07;99655.55;;;8.49;77.42
76229;BME280;65021;53.174;18.160;2023-04-01T11:56:38;99664.65;;;8.45;75.50
76229;BME280;65021;53.174;18.160;2023-04-01T12:02:37;99669.48;;;8.52;75.13
76229;BME280;65021;53.174;18.160;2023-04-01T12:13:54;99678.45;;;8.51;74.77
76229;BME280;65021;53.174;18.160;2023-04-01T12:21:38;99688.13;;;8.84;74.39
76229;BME280;65021;53.174;18.160;2023-04-01T12:30:01;99695.51;;;8.85;74.56
76229;BME280;65021;53.174;18.160;2023-04-01T12:35:23;99705.69;;;8.85;74.51
76229;BME280;65021;53.174;18.160;2023-04-01T12:56:58;99719.14;;;8.98;73.30
76229;BME280;65021;53.174;18.160;2023-04-01T13:05:47;99734.77;;;8.84;72.91
76229;BME280;65021;53.174;18.160;2023-04-01T13:11:06;99742.97;;;8.78;73.14
76229;BME280;65021;53.174;18.160;2023-04-01T13:16:20;99757.45;;;8.52;72.71
76229;BME280;65021;53.174;18.160;2023-04-01T13:43:26;99774.63;;;8.08;73.66
76229;BME280;65021;53.174;18.160;2023-04-01T13:53:51;99791.45;;;8.04;73.79
76229;BME280;65021;53.174;18.160;2023-04-01T14:29:27;99850.45;;;7.19;74.12
76229;BME280;65021;53.174;18.160;2023-04-01T14:35:27;99851.93;;;7.09;74.07
76229;BME280;65021;53.174;18.160;2023-04-01T14:43:45;99859.36;;;6.94;74.42
76229;BME280;65021;53.174;18.160;2023-04-01T14:49:39;99873.70;;;6.83;74.50
76229;BME280;65021;53.174;18.160;2023-04-01T14:52:17;99878.45;;;6.71;74.90
76229;BME280;65021;53.174;18.160;2023-04-01T14:54:49;99881.70;;;6.59;74.82
76229;BME280;65021;53.174;18.160;2023-04-01T14:57:28;99886.06;;;6.50;75.06
76229;BME280;65021;53.174;18.160;2023-04-01T15:05:14;99904.19;;;6.37;75.36
76229;BME280;65021;53.174;18.160;2023-04-01T15:19:12;99922.77;;;6.14;75.83
76229;BME280;65021;53.174;18.160;2023-04-01T15:24:21;99938.29;;;6.05;75.78
76229;BME280;65021;53.174;18.160;2023-04-01T15:35:40;99958.61;;;5.74;76.40
76229;BME280;65021;53.174;18.160;2023-04-01T15:40:53;99967.11;;;5.57;76.67
76229;BME280;65021;53.174;18.160;2023-04-01T15:43:43;99975.35;;;5.47;76.81
76229;BME280;65021;53.174;18.160;2023-04-01T15:57:44;99988.71;;;5.23;77.17
76229;BME280;65021;53.174;18.160;2023-04-01T16:00:30;99993.92;;;5.17;77.33
76229;BME280;65021;53.174;18.160;2023-04-01T16:19:51;100029.43;;;4.82;78.03
76229;BME280;65021;53.174;18.160;2023-04-01T16:25:39;100039.30;;;4.75;78.49
76229;BME280;65021;53.174;18.160;2023-04-01T16:28:28;100041.13;;;4.73;78.29
76229;BME280;65021;53.174;18.160;2023-04-01T16:31:41;100049.05;;;4.72;78.48
76229;BME280;65021;53.174;18.160;2023-04-01T16:39:47;100055.66;;;4.58;78.68
76229;BME280;65021;53.174;18.160;2023-04-01T16:47:40;100070.88;;;4.40;79.25
76229;BME280;65021;53.174;18.160;2023-04-01T16:50:24;100072.65;;;4.35;79.16
76229;BME280;65021;53.174;18.160;2023-04-01T16:53:08;100077.59;;;4.32;79.13
76229;BME280;65021;53.174;18.160;2023-04-01T16:55:50;100079.58;;;4.30;79.33
76229;BME280;65021;53.174;18.160;2023-04-01T16:58:25;100087.70;;;4.30;79.30
76229;BME280;65021;53.174;18.160;2023-04-01T17:00:58;100088.09;;;4.29;79.67
76229;BME280;65021;53.174;18.160;2023-04-01T17:03:33;100092.67;;;4.28;79.61
76229;BME280;65021;53.174;18.160;2023-04-01T17:11:19;100105.50;;;4.28;79.60
76229;BME280;65021;53.174;18.160;2023-04-01T17:24:26;100130.71;;;4.17;79.21
76229;BME280;65021;53.174;18.160;2023-04-01T17:32:16;100138.14;;;4.10;79.27
76229;BME280;65021;53.174;18.160;2023-04-01T17:40:50;100153.64;;;4.07;79.45
76229;BME280;65021;53.174;18.160;2023-04-01T17:46:31;100165.02;;;4.02;79.83
76229;BME280;65021;53.174;18.160;2023-04-01T17:57:44;100188.48;;;3.90;79.89
76229;BME280;65021;53.174;18.160;2023-04-01T18:13:45;100203.70;;;3.72;79.87
76229;BME280;65021;53.174;18.160;2023-04-01T18:21:44;100218.73;;;3.65;80.12
76229;BME280;65021;53.174;18.160;2023-04-01T18:24:19;100219.86;;;3.60;80.03
76229;BME280;65021;53.174;18.160;2023-04-01T18:27:15;100221.00;;;3.58;80.04
76229;BME280;65021;53.174;18.160;2023-04-01T18:29:54;100227.75;;;3.55;80.04
76229;BME280;65021;53.174;18.160;2023-04-01T18:32:31;100231.86;;;3.54;80.18
76229;BME280;65021;53.174;18.160;2023-04-01T18:35:29;100233.58;;;3.52;80.25
76229;BME280;65021;53.174;18.160;2023-04-01T18:40:40;100243.73;;;3.51;80.40
76229;BME280;65021;53.174;18.160;2023-04-01T18:43:48;100246.56;;;3.49;80.54
76229;BME280;65021;53.174;18.160;2023-04-01T18:49:21;100252.95;;;3.48;80.77
76229;BME280;65021;53.174;18.160;2023-04-01T18:51:59;100256.95;;;3.48;80.53
76229;BME280;65021;53.174;18.160;2023-04-01T18:54:45;100261.52;;;3.47;80.70
76229;BME280;65021;53.174;18.160;2023-04-01T18:57:16;100261.99;;;3.45;80.86
76229;BME280;65021;53.174;18.160;2023-04-01T18:59:46;100268.55;;;3.43;80.95
76229;BME280;65021;53.174;18.160;2023-04-01T19:07:40;100279.23;;;3.38;80.98
76229;BME280;65021;53.174;18.160;2023-04-01T19:12:56;100286.13;;;3.36;81.17
76229;BME280;65021;53.174;18.160;2023-04-01T19:20:59;100298.80;;;3.32;81.07
76229;BME280;65021;53.174;18.160;2023-04-01T19:26:22;100304.97;;;3.29;81.05
76229;BME280;65021;53.174;18.160;2023-04-01T19:48:43;100336.02;;;3.03;82.53
76229;BME280;65021;53.174;18.160;2023-04-01T19:51:22;100338.08;;;2.99;82.58
76229;BME280;65021;53.174;18.160;2023-04-01T19:54:01;100341.13;;;2.96;82.91
76229;BME280;65021;53.174;18.160;2023-04-01T19:56:38;100339.94;;;2.93;83.05
76229;BME280;65021;53.174;18.160;2023-04-01T20:01:49;100352.80;;;2.90;83.46
76229;BME280;65021;53.174;18.160;2023-04-01T20:04:45;100351.75;;;2.90;83.57
76229;BME280;65021;53.174;18.160;2023-04-01T20:07:38;100365.96;;;2.87;83.49
76229;BME280;65021;53.174;18.160;2023-04-01T20:17:52;100379.34;;;2.84;83.62
76229;BME280;65021;53.174;18.160;2023-04-01T20:20:26;100390.02;;;2.83;83.57
76229;BME280;65021;53.174;18.160;2023-04-01T20:23:02;100391.45;;;2.84;83.33
76229;BME280;65021;53.174;18.160;2023-04-01T20:25:57;100392.10;;;2.83;83.44
76229;BME280;65021;53.174;18.160;2023-04-01T20:28:30;100394.84;;;2.83;83.37
76229;BME280;65021;53.174;18.160;2023-04-01T20:31:20;100395.42;;;2.81;83.27
76229;BME280;65021;53.174;18.160;2023-04-01T20:39:54;100399.01;;;2.79;83.50
76229;BME280;65021;53.174;18.160;2023-04-01T20:45:17;100400.00;;;2.80;83.44
76229;BME280;65021;53.174;18.160;2023-04-01T20:53:40;100406.02;;;2.83;83.37
76229;BME280;65021;53.174;18.160;2023-04-01T21:07:50;100416.05;;;2.87;83.31
76229;BME280;65021;53.174;18.160;2023-04-01T21:13:15;100419.95;;;2.88;83.28
76229;BME280;65021;53.174;18.160;2023-04-01T21:18:46;100425.67;;;2.88;83.25
76229;BME280;65021;53.174;18.160;2023-04-01T21:24:23;100434.38;;;2.88;83.06
76229;BME280;65021;53.174;18.160;2023-04-01T21:35:48;100442.67;;;2.82;83.45
76229;BME280;65021;53.174;18.160;2023-04-01T21:43:57;100450.98;;;2.77;83.21
76229;BME280;65021;53.174;18.160;2023-04-01T21:58:13;100463.42;;;2.70;83.86
76229;BME280;65021;53.174;18.160;2023-04-01T22:00:30;100463.77;;;2.70;83.45
76229;BME280;65021;53.174;18.160;2023-04-01T22:08:43;100472.70;;;2.76;83.68
76229;BME280;65021;53.174;18.160;2023-04-01T22:11:29;100477.19;;;2.76;83.57
76229;BME280;65021;53.174;18.160;2023-04-01T22:16:41;100477.95;;;2.80;83.64
76229;BME280;65021;53.174;18.160;2023-04-01T22:19:30;100482.56;;;2.80;83.54
76229;BME280;65021;53.174;18.160;2023-04-01T22:22:14;100480.78;;;2.79;83.59
76229;BME280;65021;53.174;18.160;2023-04-01T22:24:57;100488.44;;;2.80;83.59
76229;BME280;65021;53.174;18.160;2023-04-01T22:32:45;100497.58;;;2.77;83.43
76229;BME280;65021;53.174;18.160;2023-04-01T22:35:36;100503.88;;;2.78;83.36
76229;BME280;65021;53.174;18.160;2023-04-01T22:43:38;100509.26;;;2.74;83.21
76229;BME280;65021;53.174;18.160;2023-04-01T22:46:20;100514.10;;;2.74;83.27
76229;BME280;65021;53.174;18.160;2023-04-01T22:51:39;100514.27;;;2.74;83.20
76229;BME280;65021;53.174;18.160;2023-04-01T22:57:06;100523.87;;;2.76;83.23
76229;BME280;65021;53.174;18.160;2023-04-01T22:59:58;100520.24;;;2.77;83.19
76229;BME280;65021;53.174;18.160;2023-04-01T23:02:38;100523.14;;;2.79;83.12
76229;BME280;65021;53.174;18.160;2023-04-01T23:05:05;100523.84;;;2.80;83.20
76229;BME280;65021;53.174;18.160;2023-04-01T23:13:03;100530.95;;;2.85;82.92
76229;BME280;65021;53.174;18.160;2023-04-01T23:15:32;100531.23;;;2.85;82.87
76229;BME280;65021;53.174;18.160;2023-04-01T23:18:09;100530.13;;;2.85;82.96
76229;BME280;65021;53.174;18.160;2023-04-01T23:21:06;100538.42;;;2.86;82.94
76229;BME280;65021;53.174;18.160;2023-04-01T23:23:41;100536.94;;;2.85;82.95
76229;BME280;65021;53.174;18.160;2023-04-01T23:26:14;100544.91;;;2.85;82.80
76229;BME280;65021;53.174;18.160;2023-04-01T23:28:56;100543.81;;;2.84;82.75
76229;BME280;65021;53.174;18.160;2023-04-01T23:36:38;100551.82;;;2.83;82.76
76229;BME280;65021;53.174;18.160;2023-04-01T23:39:20;100555.33;;;2.81;82.76
76229;BME280;65021;53.174;18.160;2023-04-01T23:41:51;100564.44;;;2.82;82.72
76229;BME280;65021;53.174;18.160;2023-04-01T23:44:18;100563.08;;;2.81;82.67
76229;BME280;65021;53.174;18.160;2023-04-01T23:46:46;100564.55;;;2.81;82.64
76229;BME280;65021;53.174;18.160;2023-04-01T23:49:34;100572.17;;;2.81;82.69
76229;BME280;65021;53.174;18.160;2023-04-01T23:52:25;100574.08;;;2.83;82.67
76229;BME280;65021;53.174;18.160;2023-04-01T23:54:55;100574.27;;;2.82;82.69
76229;BME280;65021;53.174;18.160;2023-04-01T23:57:34;100579.23;;;2.82;82.68
